Charlottesville Albemarle Airport Charlottesville US
ICAO: KCHO
IATA: CHO
Category: Medium
Scheduled Services: Yes

Elevation: 639 ft
TransAlt. 18000 ft.

Airport Communications:
POTOMAC APP/DEP:132.85
ASOS:118.425
ATIS:118.425
CTAF:124.5
GND:121.9
LEESBURG RDO:122.2
TWR:124.5
UNICOM:122.95

KCHO Zoom In..

If you have problems with the map follow the link
https://www.worldairports.se/pages/airport.php?
ICAO=KCHO

Runways:

(A) RW 03 length 6801 ft width 150 ft
ILS 111.70 / hdg 30

(B) RW 21 length 6801 ft width 150 ft
---- / hdg 210

Location; KCHO
Day. 08 / Time. 17.53 Zulu
* Altimeter: 30.42
* Temperature: 07° c. 44.6°f.
* Wind from: VRB° Speed 06 kn.
Dewpoint: -06° c.
Visibility: 10 Statute Miles.
Clouds: Clear (automated report).

KCHO 081753Z VRB06KT 10SM CLR 07/M06 A3042 RMK AO2 SLP304 T00721056 10072 21039 58024


Wind From VRB°
Speed 06 kn.

 
 
jpsmedia worldairports.se 2019   terms of use